sensor_id;sensor_type;location;lat;lon;timestamp;temperature;humidity
60242;SHT30;46103;52.076;113.488;2023-04-24T00:02:36;-0.15;31.49
60242;SHT30;46103;52.076;113.488;2023-04-24T00:05:43;-0.39;31.85
60242;SHT30;46103;52.076;113.488;2023-04-24T00:08:47;-0.29;31.53
60242;SHT30;46103;52.076;113.488;2023-04-24T00:11:50;-0.32;31.84
60242;SHT30;46103;52.076;113.488;2023-04-24T00:14:54;-0.05;31.51
60242;SHT30;46103;52.076;113.488;2023-04-24T00:17:57;0.05;30.89
60242;SHT30;46103;52.076;113.488;2023-04-24T00:21:02;-0.10;30.99
60242;SHT30;46103;52.076;113.488;2023-04-24T00:24:07;-0.21;30.75
60242;SHT30;46103;52.076;113.488;2023-04-24T00:27:17;-0.07;30.91
60242;SHT30;46103;52.076;113.488;2023-04-24T00:30:22;0.11;29.90
60242;SHT30;46103;52.076;113.488;2023-04-24T00:33:26;0.03;29.95
60242;SHT30;46103;52.076;113.488;2023-04-24T00:36:31;0.17;29.97
60242;SHT30;46103;52.076;113.488;2023-04-24T00:39:36;0.47;29.22
60242;SHT30;46103;52.076;113.488;2023-04-24T00:42:40;0.60;29.17
60242;SHT30;46103;52.076;113.488;2023-04-24T00:45:46;0.61;29.19
60242;SHT30;46103;52.076;113.488;2023-04-24T00:48:50;0.43;28.97
60242;SHT30;46103;52.076;113.488;2023-04-24T00:51:54;0.43;28.45
60242;SHT30;46103;52.076;113.488;2023-04-24T00:54:59;0.40;28.43
60242;SHT30;46103;52.076;113.488;2023-04-24T00:58:07;0.62;28.90
60242;SHT30;46103;52.076;113.488;2023-04-24T01:01:11;0.79;28.40
60242;SHT30;46103;52.076;113.488;2023-04-24T01:04:17;0.85;27.50
60242;SHT30;46103;52.076;113.488;2023-04-24T01:07:22;0.99;27.13
60242;SHT30;46103;52.076;113.488;2023-04-24T01:10:27;1.07;27.11
60242;SHT30;46103;52.076;113.488;2023-04-24T01:13:33;1.15;26.63
60242;SHT30;46103;52.076;113.488;2023-04-24T01:16:38;1.09;26.33
60242;SHT30;46103;52.076;113.488;2023-04-24T01:19:43;1.03;26.72
60242;SHT30;46103;52.076;113.488;2023-04-24T01:22:49;1.07;27.29
60242;SHT30;46103;52.076;113.488;2023-04-24T01:25:53;1.24;27.17
60242;SHT30;46103;52.076;113.488;2023-04-24T01:29:00;1.43;26.85
60242;SHT30;46103;52.076;113.488;2023-04-24T01:32:05;1.58;26.79
60242;SHT30;46103;52.076;113.488;2023-04-24T01:35:09;1.79;25.97
60242;SHT30;46103;52.076;113.488;2023-04-24T01:38:14;1.86;25.64
60242;SHT30;46103;52.076;113.488;2023-04-24T01:41:18;1.75;25.87
60242;SHT30;46103;52.076;113.488;2023-04-24T01:44:23;1.70;25.44
60242;SHT30;46103;52.076;113.488;2023-04-24T01:47:28;1.72;24.88
60242;SHT30;46103;52.076;113.488;2023-04-24T01:50:32;2.02;24.60
60242;SHT30;46103;52.076;113.488;2023-04-24T01:53:38;2.32;24.00
60242;SHT30;46103;52.076;113.488;2023-04-24T01:56:42;2.37;23.49
60242;SHT30;46103;52.076;113.488;2023-04-24T01:59:47;2.40;23.52
60242;SHT30;46103;52.076;113.488;2023-04-24T02:02:50;2.38;21.73
60242;SHT30;46103;52.076;113.488;2023-04-24T02:05:54;2.50;22.44
60242;SHT30;46103;52.076;113.488;2023-04-24T02:08:59;2.81;22.00
60242;SHT30;46103;52.076;113.488;2023-04-24T02:12:03;2.85;21.96
60242;SHT30;46103;52.076;113.488;2023-04-24T02:15:07;2.92;21.45
60242;SHT30;46103;52.076;113.488;2023-04-24T02:18:11;2.93;21.28
60242;SHT30;46103;52.076;113.488;2023-04-24T02:21:15;2.73;20.82
60242;SHT30;46103;52.076;113.488;2023-04-24T02:24:19;2.71;20.84
60242;SHT30;46103;52.076;113.488;2023-04-24T02:27:22;2.64;20.93
60242;SHT30;46103;52.076;113.488;2023-04-24T02:30:25;2.74;20.80
60242;SHT30;46103;52.076;113.488;2023-04-24T02:33:29;2.64;20.32
60242;SHT30;46103;52.076;113.488;2023-04-24T02:36:33;2.75;20.61
60242;SHT30;46103;52.076;113.488;2023-04-24T02:39:36;2.68;20.10
60242;SHT30;46103;52.076;113.488;2023-04-24T02:42:40;2.82;20.21
60242;SHT30;46103;52.076;113.488;2023-04-24T02:45:43;2.92;19.91
60242;SHT30;46103;52.076;113.488;2023-04-24T02:48:47;2.93;19.78
60242;SHT30;46103;52.076;113.488;2023-04-24T02:51:50;2.89;19.72
60242;SHT30;46103;52.076;113.488;2023-04-24T02:54:54;3.02;18.47
60242;SHT30;46103;52.076;113.488;2023-04-24T02:57:57;3.22;19.42
60242;SHT30;46103;52.076;113.488;2023-04-24T03:01:00;3.44;19.14
60242;SHT30;46103;52.076;113.488;2023-04-24T03:04:04;3.26;18.62
60242;SHT30;46103;52.076;113.488;2023-04-24T03:07:08;3.19;19.41
60242;SHT30;46103;52.076;113.488;2023-04-24T03:10:12;3.13;19.52
60242;SHT30;46103;52.076;113.488;2023-04-24T03:13:16;3.30;19.26
60242;SHT30;46103;52.076;113.488;2023-04-24T03:16:20;3.47;19.23
60242;SHT30;46103;52.076;113.488;2023-04-24T03:19:23;3.26;19.10
60242;SHT30;46103;52.076;113.488;2023-04-24T03:22:42;3.50;19.08
60242;SHT30;46103;52.076;113.488;2023-04-24T03:25:46;3.68;18.93
60242;SHT30;46103;52.076;113.488;2023-04-24T03:28:53;3.77;18.29
60242;SHT30;46103;52.076;113.488;2023-04-24T03:31:57;3.81;18.27
60242;SHT30;46103;52.076;113.488;2023-04-24T03:35:01;3.78;18.99
60242;SHT30;46103;52.076;113.488;2023-04-24T03:38:06;3.98;18.78
60242;SHT30;46103;52.076;113.488;2023-04-24T03:41:29;4.09;18.76
60242;SHT30;46103;52.076;113.488;2023-04-24T03:44:43;4.03;18.46
60242;SHT30;46103;52.076;113.488;2023-04-24T03:47:47;4.01;18.46
60242;SHT30;46103;52.076;113.488;2023-04-24T03:50:50;3.99;18.90
60242;SHT30;46103;52.076;113.488;2023-04-24T03:53:54;4.05;18.65
60242;SHT30;46103;52.076;113.488;2023-04-24T03:57:02;4.30;17.24
60242;SHT30;46103;52.076;113.488;2023-04-24T04:00:11;4.10;17.46
60242;SHT30;46103;52.076;113.488;2023-04-24T04:03:15;4.39;17.45
60242;SHT30;46103;52.076;113.488;2023-04-24T04:06:21;4.42;17.26
60242;SHT30;46103;52.076;113.488;2023-04-24T04:09:27;4.32;17.33
60242;SHT30;46103;52.076;113.488;2023-04-24T04:12:30;4.40;17.65
60242;SHT30;46103;52.076;113.488;2023-04-24T04:15:34;4.44;17.84
60242;SHT30;46103;52.076;113.488;2023-04-24T04:18:38;4.44;17.82
60242;SHT30;46103;52.076;113.488;2023-04-24T04:21:42;4.50;17.63
60242;SHT30;46103;52.076;113.488;2023-04-24T04:24:58;4.57;17.57
60242;SHT30;46103;52.076;113.488;2023-04-24T04:28:05;4.56;17.69
60242;SHT30;46103;52.076;113.488;2023-04-24T04:31:08;4.63;17.46
60242;SHT30;46103;52.076;113.488;2023-04-24T04:34:12;4.50;17.94
60242;SHT30;46103;52.076;113.488;2023-04-24T04:37:16;4.40;17.01
60242;SHT30;46103;52.076;113.488;2023-04-24T04:40:40;4.33;17.74
60242;SHT30;46103;52.076;113.488;2023-04-24T04:43:46;4.42;17.45
60242;SHT30;46103;52.076;113.488;2023-04-24T04:46:50;4.50;17.32
60242;SHT30;46103;52.076;113.488;2023-04-24T04:50:07;4.17;17.29
60242;SHT30;46103;52.076;113.488;2023-04-24T04:53:11;4.32;17.84
60242;SHT30;46103;52.076;113.488;2023-04-24T04:56:16;4.44;17.80
60242;SHT30;46103;52.076;113.488;2023-04-24T04:59:20;4.57;17.87
60242;SHT30;46103;52.076;113.488;2023-04-24T05:02:30;4.39;17.57
60242;SHT30;46103;52.076;113.488;2023-04-24T05:05:34;4.36;17.68
60242;SHT30;46103;52.076;113.488;2023-04-24T05:08:38;4.44;16.87
60242;SHT30;46103;52.076;113.488;2023-04-24T05:11:45;4.47;17.36
60242;SHT30;46103;52.076;113.488;2023-04-24T05:14:48;4.39;17.37
60242;SHT30;46103;52.076;113.488;2023-04-24T05:17:53;4.50;17.64
60242;SHT30;46103;52.076;113.488;2023-04-24T05:20:59;4.71;18.09
60242;SHT30;46103;52.076;113.488;2023-04-24T05:24:03;5.11;17.83
60242;SHT30;46103;52.076;113.488;2023-04-24T05:27:20;5.13;17.54
60242;SHT30;46103;52.076;113.488;2023-04-24T05:30:25;5.09;17.34
60242;SHT30;46103;52.076;113.488;2023-04-24T05:33:29;5.08;16.95
60242;SHT30;46103;52.076;113.488;2023-04-24T05:36:33;5.13;16.68
60242;SHT30;46103;52.076;113.488;2023-04-24T05:39:37;5.08;16.78
60242;SHT30;46103;52.076;113.488;2023-04-24T05:42:40;5.11;17.07
60242;SHT30;46103;52.076;113.488;2023-04-24T05:45:44;5.11;16.83
60242;SHT30;46103;52.076;113.488;2023-04-24T05:48:47;5.11;17.04
60242;SHT30;46103;52.076;113.488;2023-04-24T05:51:52;5.29;17.28
60242;SHT30;46103;52.076;113.488;2023-04-24T05:54:56;5.51;16.85
60242;SHT30;46103;52.076;113.488;2023-04-24T05:58:05;5.56;16.72
60242;SHT30;46103;52.076;113.488;2023-04-24T06:01:13;5.88;16.83
60242;SHT30;46103;52.076;113.488;2023-04-24T06:04:25;5.91;16.71
60242;SHT30;46103;52.076;113.488;2023-04-24T06:07:28;5.71;16.41
60242;SHT30;46103;52.076;113.488;2023-04-24T06:10:35;5.88;17.00
60242;SHT30;46103;52.076;113.488;2023-04-24T06:13:40;6.16;16.95
60242;SHT30;46103;52.076;113.488;2023-04-24T06:17:03;6.42;16.54
60242;SHT30;46103;52.076;113.488;2023-04-24T06:20:11;6.11;16.52
60242;SHT30;46103;52.076;113.488;2023-04-24T06:23:15;6.39;16.53
60242;SHT30;46103;52.076;113.488;2023-04-24T06:26:18;6.34;16.48
60242;SHT30;46103;52.076;113.488;2023-04-24T06:29:23;6.56;16.83
60242;SHT30;46103;52.076;113.488;2023-04-24T06:32:27;6.53;16.69
60242;SHT30;46103;52.076;113.488;2023-04-24T06:35:31;6.69;16.70
60242;SHT30;46103;52.076;113.488;2023-04-24T06:38:34;6.73;16.31
60242;SHT30;46103;52.076;113.488;2023-04-24T06:41:39;7.04;16.41
60242;SHT30;46103;52.076;113.488;2023-04-24T06:44:49;6.97;16.35
60242;SHT30;46103;52.076;113.488;2023-04-24T06:47:53;7.07;15.63
60242;SHT30;46103;52.076;113.488;2023-04-24T06:50:56;7.19;15.57
60242;SHT30;46103;52.076;113.488;2023-04-24T06:54:00;7.50;15.65
60242;SHT30;46103;52.076;113.488;2023-04-24T06:57:04;7.40;15.98
60242;SHT30;46103;52.076;113.488;2023-04-24T07:00:08;7.97;15.69
60242;SHT30;46103;52.076;113.488;2023-04-24T07:03:13;8.61;15.11
60242;SHT30;46103;52.076;113.488;2023-04-24T07:06:17;9.25;14.55
60242;SHT30;46103;52.076;113.488;2023-04-24T07:09:22;9.10;14.95
60242;SHT30;46103;52.076;113.488;2023-04-24T07:12:27;9.25;14.53
60242;SHT30;46103;52.076;113.488;2023-04-24T07:15:30;9.53;14.23
60242;SHT30;46103;52.076;113.488;2023-04-24T07:18:36;9.32;14.19
60242;SHT30;46103;52.076;113.488;2023-04-24T07:21:41;10.08;14.21
60242;SHT30;46103;52.076;113.488;2023-04-24T07:24:45;10.65;13.46
60242;SHT30;46103;52.076;113.488;2023-04-24T07:27:49;11.32;13.10
60242;SHT30;46103;52.076;113.488;2023-04-24T07:30:54;10.62;13.28
60242;SHT30;46103;52.076;113.488;2023-04-24T07:33:57;10.57;13.50
60242;SHT30;46103;52.076;113.488;2023-04-24T07:37:02;11.10;13.12
60242;SHT30;46103;52.076;113.488;2023-04-24T07:40:07;11.91;12.76
60242;SHT30;46103;52.076;113.488;2023-04-24T07:43:11;12.10;12.35
60242;SHT30;46103;52.076;113.488;2023-04-24T07:46:15;11.68;13.11
60242;SHT30;46103;52.076;113.488;2023-04-24T07:49:19;12.04;12.80
60242;SHT30;46103;52.076;113.488;2023-04-24T07:52:23;12.48;12.53
60242;SHT30;46103;52.076;113.488;2023-04-24T07:55:28;13.28;11.91
60242;SHT30;46103;52.076;113.488;2023-04-24T07:58:32;13.04;11.99
60242;SHT30;46103;52.076;113.488;2023-04-24T08:01:36;13.40;12.06
60242;SHT30;46103;52.076;113.488;2023-04-24T08:04:40;13.61;11.66
60242;SHT30;46103;52.076;113.488;2023-04-24T08:07:45;12.85;11.68
60242;SHT30;46103;52.076;113.488;2023-04-24T08:10:52;13.23;11.77
60242;SHT30;46103;52.076;113.488;2023-04-24T08:13:55;12.93;11.92
60242;SHT30;46103;52.076;113.488;2023-04-24T08:16:59;13.37;12.15
60242;SHT30;46103;52.076;113.488;2023-04-24T08:20:06;13.76;11.94
60242;SHT30;46103;52.076;113.488;2023-04-24T08:23:13;13.14;11.86
60242;SHT30;46103;52.076;113.488;2023-04-24T08:26:17;13.79;11.74
60242;SHT30;46103;52.076;113.488;2023-04-24T08:29:21;13.79;11.94
60242;SHT30;46103;52.076;113.488;2023-04-24T08:32:26;14.12;11.40
60242;SHT30;46103;52.076;113.488;2023-04-24T08:35:33;13.90;11.48
60242;SHT30;46103;52.076;113.488;2023-04-24T08:38:37;15.15;11.16
60242;SHT30;46103;52.076;113.488;2023-04-24T08:41:44;15.44;10.95
60242;SHT30;46103;52.076;113.488;2023-04-24T08:44:48;14.77;11.24
60242;SHT30;46103;52.076;113.488;2023-04-24T08:47:54;15.03;11.09
60242;SHT30;46103;52.076;113.488;2023-04-24T08:51:02;15.33;10.90
60242;SHT30;46103;52.076;113.488;2023-04-24T08:54:08;15.65;11.13
60242;SHT30;46103;52.076;113.488;2023-04-24T08:57:13;17.10;10.39
60242;SHT30;46103;52.076;113.488;2023-04-24T09:00:20;17.04;10.42
60242;SHT30;46103;52.076;113.488;2023-04-24T09:03:27;16.77;10.45
60242;SHT30;46103;52.076;113.488;2023-04-24T09:06:31;17.25;10.30
60242;SHT30;46103;52.076;113.488;2023-04-24T09:09:36;17.54;10.31
60242;SHT30;46103;52.076;113.488;2023-04-24T09:12:42;18.35;10.12
60242;SHT30;46103;52.076;113.488;2023-04-24T09:15:46;18.53;9.99
60242;SHT30;46103;52.076;113.488;2023-04-24T09:18:50;17.63;9.94
60242;SHT30;46103;52.076;113.488;2023-04-24T09:21:53;17.04;10.45
60242;SHT30;46103;52.076;113.488;2023-04-24T09:25:07;17.47;10.12
60242;SHT30;46103;52.076;113.488;2023-04-24T09:28:12;17.84;10.15
60242;SHT30;46103;52.076;113.488;2023-04-24T09:31:19;19.25;9.75
60242;SHT30;46103;52.076;113.488;2023-04-24T09:34:26;19.41;9.57
60242;SHT30;46103;52.076;113.488;2023-04-24T09:37:30;20.24;9.36
60242;SHT30;46103;52.076;113.488;2023-04-24T09:40:34;20.24;9.32
60242;SHT30;46103;52.076;113.488;2023-04-24T09:43:42;19.63;9.50
60242;SHT30;46103;52.076;113.488;2023-04-24T09:46:50;18.16;10.01
60242;SHT30;46103;52.076;113.488;2023-04-24T09:49:57;18.34;9.90
60242;SHT30;46103;52.076;113.488;2023-04-24T09:53:03;18.99;9.91
60242;SHT30;46103;52.076;113.488;2023-04-24T09:56:08;19.52;9.63
60242;SHT30;46103;52.076;113.488;2023-04-24T09:59:18;19.39;9.66
60242;SHT30;46103;52.076;113.488;2023-04-24T10:02:22;19.41;9.80
60242;SHT30;46103;52.076;113.488;2023-04-24T10:05:34;19.17;9.75
60242;SHT30;46103;52.076;113.488;2023-04-24T10:08:38;18.74;9.92
60242;SHT30;46103;52.076;113.488;2023-04-24T10:11:46;18.90;9.78
60242;SHT30;46103;52.076;113.488;2023-04-24T10:14:49;18.59;9.97
60242;SHT30;46103;52.076;113.488;2023-04-24T10:17:53;18.87;9.75
60242;SHT30;46103;52.076;113.488;2023-04-24T10:20:59;18.57;9.86
60242;SHT30;46103;52.076;113.488;2023-04-24T10:24:04;18.01;10.08
60242;SHT30;46103;52.076;113.488;2023-04-24T10:27:11;17.53;10.31
60242;SHT30;46103;52.076;113.488;2023-04-24T10:30:18;17.56;10.36
60242;SHT30;46103;52.076;113.488;2023-04-24T10:33:22;16.78;10.75
60242;SHT30;46103;52.076;113.488;2023-04-24T10:36:28;16.75;10.86
60242;SHT30;46103;52.076;113.488;2023-04-24T10:39:35;16.73;10.84
60242;SHT30;46103;52.076;113.488;2023-04-24T10:42:41;16.60;11.02
60242;SHT30;46103;52.076;113.488;2023-04-24T10:46:02;16.53;11.11
60242;SHT30;46103;52.076;113.488;2023-04-24T10:49:07;16.63;11.01
60242;SHT30;46103;52.076;113.488;2023-04-24T10:52:14;16.77;10.86
60242;SHT30;46103;52.076;113.488;2023-04-24T10:55:41;15.95;11.20
60242;SHT30;46103;52.076;113.488;2023-04-24T10:58:51;15.74;11.39
60242;SHT30;46103;52.076;113.488;2023-04-24T11:01:55;15.18;11.61
60242;SHT30;46103;52.076;113.488;2023-04-24T11:05:03;14.85;12.01
60242;SHT30;46103;52.076;113.488;2023-04-24T11:11:18;13.93;12.53
60242;SHT30;46103;52.076;113.488;2023-04-24T11:14:24;13.58;12.87
60242;SHT30;46103;52.076;113.488;2023-04-24T11:17:38;13.34;12.99
60242;SHT30;46103;52.076;113.488;2023-04-24T11:20:44;12.72;13.33
60242;SHT30;46103;52.076;113.488;2023-04-24T11:23:47;12.27;13.54
60242;SHT30;46103;52.076;113.488;2023-04-24T11:27:12;11.45;14.08
60242;SHT30;46103;52.076;113.488;2023-04-24T11:30:20;10.15;14.80
60242;SHT30;46103;52.076;113.488;2023-04-24T11:33:23;9.03;15.66
60242;SHT30;46103;52.076;113.488;2023-04-24T11:36:26;8.18;16.38
60242;SHT30;46103;52.076;113.488;2023-04-24T11:39:36;7.43;17.07
60242;SHT30;46103;52.076;113.488;2023-04-24T11:42:42;6.87;17.55
60242;SHT30;46103;52.076;113.488;2023-04-24T11:45:49;6.49;17.91
60242;SHT30;46103;52.076;113.488;2023-04-24T11:48:54;6.09;18.35
60242;SHT30;46103;52.076;113.488;2023-04-24T11:51:57;5.83;18.58
60242;SHT30;46103;52.076;113.488;2023-04-24T11:55:03;5.56;18.98
60242;SHT30;46103;52.076;113.488;2023-04-24T11:58:07;5.29;19.30
60242;SHT30;46103;52.076;113.488;2023-04-24T12:01:10;5.12;19.56
60242;SHT30;46103;52.076;113.488;2023-04-24T12:04:15;4.93;19.68
60242;SHT30;46103;52.076;113.488;2023-04-24T12:07:23;4.72;20.57
60242;SHT30;46103;52.076;113.488;2023-04-24T12:10:28;4.56;20.19
60242;SHT30;46103;52.076;113.488;2023-04-24T12:13:31;4.37;20.63
60242;SHT30;46103;52.076;113.488;2023-04-24T12:16:36;4.26;20.42
60242;SHT30;46103;52.076;113.488;2023-04-24T12:19:45;4.12;20.57
60242;SHT30;46103;52.076;113.488;2023-04-24T12:22:54;3.99;21.12
60242;SHT30;46103;52.076;113.488;2023-04-24T12:26:00;3.88;21.32
60242;SHT30;46103;52.076;113.488;2023-04-24T12:29:04;3.79;21.39
60242;SHT30;46103;52.076;113.488;2023-04-24T12:32:16;3.64;21.72
60242;SHT30;46103;52.076;113.488;2023-04-24T12:35:21;3.51;22.05
60242;SHT30;46103;52.076;113.488;2023-04-24T12:38:26;3.40;22.26
60242;SHT30;46103;52.076;113.488;2023-04-24T12:41:30;3.31;22.61
60242;SHT30;46103;52.076;113.488;2023-04-24T12:44:34;3.16;22.71
60242;SHT30;46103;52.076;113.488;2023-04-24T12:47:42;3.11;23.11
60242;SHT30;46103;52.076;113.488;2023-04-24T12:50:46;3.01;22.85
60242;SHT30;46103;52.076;113.488;2023-04-24T12:53:51;2.87;22.84
60242;SHT30;46103;52.076;113.488;2023-04-24T12:56:57;2.75;23.41
60242;SHT30;46103;52.076;113.488;2023-04-24T13:00:02;2.68;23.59
60242;SHT30;46103;52.076;113.488;2023-04-24T13:03:05;2.54;23.97
60242;SHT30;46103;52.076;113.488;2023-04-24T13:06:11;2.43;24.71
60242;SHT30;46103;52.076;113.488;2023-04-24T13:09:14;2.32;24.61
60242;SHT30;46103;52.076;113.488;2023-04-24T13:12:19;2.19;24.60
60242;SHT30;46103;52.076;113.488;2023-04-24T13:15:23;2.13;24.71
60242;SHT30;46103;52.076;113.488;2023-04-24T13:18:28;2.01;24.69
60242;SHT30;46103;52.076;113.488;2023-04-24T13:21:31;1.91;25.31
60242;SHT30;46103;52.076;113.488;2023-04-24T13:24:35;1.79;25.42
60242;SHT30;46103;52.076;113.488;2023-04-24T13:27:41;1.71;26.19
60242;SHT30;46103;52.076;113.488;2023-04-24T13:30:45;1.62;26.87
60242;SHT30;46103;52.076;113.488;2023-04-24T13:33:51;1.54;27.62
60242;SHT30;46103;52.076;113.488;2023-04-24T13:36:57;1.48;27.43
60242;SHT30;46103;52.076;113.488;2023-04-24T13:40:01;1.37;26.82
60242;SHT30;46103;52.076;113.488;2023-04-24T13:43:05;1.30;27.53
60242;SHT30;46103;52.076;113.488;2023-04-24T13:46:09;1.29;28.00
60242;SHT30;46103;52.076;113.488;2023-04-24T13:49:14;1.23;27.65
60242;SHT30;46103;52.076;113.488;2023-04-24T13:52:18;1.22;27.81
60242;SHT30;46103;52.076;113.488;2023-04-24T13:55:22;1.17;27.63
60242;SHT30;46103;52.076;113.488;2023-04-24T13:58:26;1.13;27.87
60242;SHT30;46103;52.076;113.488;2023-04-24T14:01:30;1.12;28.47
60242;SHT30;46103;52.076;113.488;2023-04-24T14:04:33;1.07;28.78
60242;SHT30;46103;52.076;113.488;2023-04-24T14:07:41;1.00;28.75
60242;SHT30;46103;52.076;113.488;2023-04-24T14:10:44;0.91;28.80
60242;SHT30;46103;52.076;113.488;2023-04-24T14:13:49;0.89;28.88
60242;SHT30;46103;52.076;113.488;2023-04-24T14:16:53;0.88;27.95
60242;SHT30;46103;52.076;113.488;2023-04-24T14:19:57;0.89;28.12
60242;SHT30;46103;52.076;113.488;2023-04-24T14:23:03;0.86;28.17
60242;SHT30;46103;52.076;113.488;2023-04-24T14:26:08;0.84;28.60
60242;SHT30;46103;52.076;113.488;2023-04-24T14:29:11;0.81;29.11
60242;SHT30;46103;52.076;113.488;2023-04-24T14:32:17;0.75;29.11
60242;SHT30;46103;52.076;113.488;2023-04-24T14:35:21;0.72;29.07
60242;SHT30;46103;52.076;113.488;2023-04-24T14:38:26;0.78;28.57
60242;SHT30;46103;52.076;113.488;2023-04-24T14:41:31;0.74;27.55
60242;SHT30;46103;52.076;113.488;2023-04-24T14:44:36;0.74;27.63
60242;SHT30;46103;52.076;113.488;2023-04-24T14:47:40;0.74;26.81
60242;SHT30;46103;52.076;113.488;2023-04-24T14:50:44;0.69;27.04
60242;SHT30;46103;52.076;113.488;2023-04-24T14:53:48;0.71;27.88
60242;SHT30;46103;52.076;113.488;2023-04-24T14:56:52;0.65;27.14
60242;SHT30;46103;52.076;113.488;2023-04-24T14:59:57;0.58;28.51
60242;SHT30;46103;52.076;113.488;2023-04-24T15:03:01;0.54;28.33
60242;SHT30;46103;52.076;113.488;2023-04-24T15:06:05;0.55;28.62
60242;SHT30;46103;52.076;113.488;2023-04-24T15:09:10;0.51;28.03
60242;SHT30;46103;52.076;113.488;2023-04-24T15:12:13;0.50;28.04
60242;SHT30;46103;52.076;113.488;2023-04-24T15:15:18;0.55;26.42
60242;SHT30;46103;52.076;113.488;2023-04-24T15:18:22;0.53;26.89
60242;SHT30;46103;52.076;113.488;2023-04-24T15:21:26;0.53;26.28
60242;SHT30;46103;52.076;113.488;2023-04-24T15:24:30;0.51;29.15
60242;SHT30;46103;52.076;113.488;2023-04-24T15:27:44;0.46;27.56
60242;SHT30;46103;52.076;113.488;2023-04-24T15:30:48;0.38;30.22
60242;SHT30;46103;52.076;113.488;2023-04-24T15:33:52;0.30;30.87
60242;SHT30;46103;52.076;113.488;2023-04-24T15:36:55;0.21;31.33
60242;SHT30;46103;52.076;113.488;2023-04-24T15:39:58;0.14;30.63
60242;SHT30;46103;52.076;113.488;2023-04-24T15:43:02;0.06;31.11
60242;SHT30;46103;52.076;113.488;2023-04-24T15:46:07;0.05;31.17
60242;SHT30;46103;52.076;113.488;2023-04-24T15:49:11;0.06;31.98
60242;SHT30;46103;52.076;113.488;2023-04-24T15:52:15;0.02;31.55
60242;SHT30;46103;52.076;113.488;2023-04-24T15:55:19;0.00;30.01
60242;SHT30;46103;52.076;113.488;2023-04-24T15:58:23;0.02;31.12
60242;SHT30;46103;52.076;113.488;2023-04-24T16:01:26;-0.04;30.71
60242;SHT30;46103;52.076;113.488;2023-04-24T16:04:30;-0.15;33.26
60242;SHT30;46103;52.076;113.488;2023-04-24T16:07:34;-0.29;34.97
60242;SHT30;46103;52.076;113.488;2023-04-24T16:10:38;-0.39;34.80
60242;SHT30;46103;52.076;113.488;2023-04-24T16:13:41;-0.55;35.04
60242;SHT30;46103;52.076;113.488;2023-04-24T16:16:46;-0.62;35.24
60242;SHT30;46103;52.076;113.488;2023-04-24T16:19:49;-0.70;34.42
60242;SHT30;46103;52.076;113.488;2023-04-24T16:22:54;-0.77;34.47
60242;SHT30;46103;52.076;113.488;2023-04-24T16:25:57;-0.83;35.17
60242;SHT30;46103;52.076;113.488;2023-04-24T16:29:01;-0.93;37.98
60242;SHT30;46103;52.076;113.488;2023-04-24T16:32:05;-1.05;41.22
60242;SHT30;46103;52.076;113.488;2023-04-24T16:35:09;-1.25;38.90
60242;SHT30;46103;52.076;113.488;2023-04-24T16:38:13;-1.32;38.08
60242;SHT30;46103;52.076;113.488;2023-04-24T16:41:16;-1.42;38.18
60242;SHT30;46103;52.076;113.488;2023-04-24T16:44:20;-1.53;37.29
60242;SHT30;46103;52.076;113.488;2023-04-24T16:47:24;-1.64;37.96
60242;SHT30;46103;52.076;113.488;2023-04-24T16:50:28;-1.74;36.67
60242;SHT30;46103;52.076;113.488;2023-04-24T16:53:32;-1.81;37.38
60242;SHT30;46103;52.076;113.488;2023-04-24T16:56:35;-1.86;35.96
60242;SHT30;46103;52.076;113.488;2023-04-24T16:59:39;-1.97;36.68
60242;SHT30;46103;52.076;113.488;2023-04-24T17:02:44;-2.00;36.57
60242;SHT30;46103;52.076;113.488;2023-04-24T17:05:51;-2.01;36.90
60242;SHT30;46103;52.076;113.488;2023-04-24T17:08:54;-2.04;36.55
60242;SHT30;46103;52.076;113.488;2023-04-24T17:11:58;-2.02;36.80
60242;SHT30;46103;52.076;113.488;2023-04-24T17:15:02;-2.02;37.26
60242;SHT30;46103;52.076;113.488;2023-04-24T17:18:06;-2.01;37.46
60242;SHT30;46103;52.076;113.488;2023-04-24T17:21:09;-2.00;38.23
60242;SHT30;46103;52.076;113.488;2023-04-24T17:24:13;-2.00;38.29
60242;SHT30;46103;52.076;113.488;2023-04-24T17:27:17;-1.94;37.95
60242;SHT30;46103;52.076;113.488;2023-04-24T17:30:21;-1.94;38.29
60242;SHT30;46103;52.076;113.488;2023-04-24T17:33:26;-1.98;38.76
60242;SHT30;46103;52.076;113.488;2023-04-24T17:36:30;-2.00;38.36
60242;SHT30;46103;52.076;113.488;2023-04-24T17:39:34;-2.02;38.39
60242;SHT30;46103;52.076;113.488;2023-04-24T17:42:38;-2.01;38.81
60242;SHT30;46103;52.076;113.488;2023-04-24T17:45:45;-2.04;39.19
60242;SHT30;46103;52.076;113.488;2023-04-24T17:48:49;-2.15;38.22
60242;SHT30;46103;52.076;113.488;2023-04-24T17:51:53;-2.22;38.27
60242;SHT30;46103;52.076;113.488;2023-04-24T17:54:57;-2.29;38.09
60242;SHT30;46103;52.076;113.488;2023-04-24T17:58:00;-2.35;38.24
60242;SHT30;46103;52.076;113.488;2023-04-24T18:01:05;-2.38;38.40
60242;SHT30;46103;52.076;113.488;2023-04-24T18:04:09;-2.39;38.97
60242;SHT30;46103;52.076;113.488;2023-04-24T18:07:13;-2.41;38.50
60242;SHT30;46103;52.076;113.488;2023-04-24T18:10:17;-2.38;38.34
60242;SHT30;46103;52.076;113.488;2023-04-24T18:13:21;-2.42;39.49
60242;SHT30;46103;52.076;113.488;2023-04-24T18:16:25;-2.55;40.34
60242;SHT30;46103;52.076;113.488;2023-04-24T18:19:30;-2.57;40.87
60242;SHT30;46103;52.076;113.488;2023-04-24T18:22:33;-2.57;41.35
60242;SHT30;46103;52.076;113.488;2023-04-24T18:25:37;-2.60;43.19
60242;SHT30;46103;52.076;113.488;2023-04-24T18:28:43;-2.70;43.25
60242;SHT30;46103;52.076;113.488;2023-04-24T18:31:47;-2.76;43.29
60242;SHT30;46103;52.076;113.488;2023-04-24T18:34:51;-2.79;43.77
60242;SHT30;46103;52.076;113.488;2023-04-24T18:37:55;-2.86;43.75
60242;SHT30;46103;52.076;113.488;2023-04-24T18:40:58;-2.91;43.69
60242;SHT30;46103;52.076;113.488;2023-04-24T18:44:02;-2.95;43.70
60242;SHT30;46103;52.076;113.488;2023-04-24T18:47:06;-3.00;43.71
60242;SHT30;46103;52.076;113.488;2023-04-24T18:50:11;-3.01;43.70
60242;SHT30;46103;52.076;113.488;2023-04-24T18:53:15;-3.04;44.07
60242;SHT30;46103;52.076;113.488;2023-04-24T18:56:20;-3.07;43.84
60242;SHT30;46103;52.076;113.488;2023-04-24T18:59:24;-3.05;44.04
60242;SHT30;46103;52.076;113.488;2023-04-24T19:02:29;-3.14;43.74
60242;SHT30;46103;52.076;113.488;2023-04-24T19:05:33;-3.09;44.36
60242;SHT30;46103;52.076;113.488;2023-04-24T19:08:36;-3.08;43.91